Time;durP1;ratioP1;P1;durP2;ratioP2;P2;SDS_P1;SDS_P2;PMS_P1;PMS_P2;Temp;Humidity;BMP_temperature;BMP_pressure;BME280_temperature;BME280_humidity;BME280_pressure;Samples;Min_cycle;Max_cycle;Signal;HPM_P1;HPM_P2
2023/12/31 00:00:09;;;;;;;0.00;0.00;;;5.20;99.90;;;;;;4990636;28;20028;-71
2023/12/31 00:02:36;;;;;;;0.00;0.00;;;5.10;99.90;;;;;;5003533;28;20026;-71
2023/12/31 00:05:01;;;;;;;0.00;0.00;;;5.10;99.90;;;;;;4995384;28;20630;-71
2023/12/31 00:07:27;;;;;;;0.00;0.00;;;5.10;99.90;;;;;;5010815;28;20029;-71
2023/12/31 00:09:53;;;;;;;0.20;0.20;;;5.10;99.90;;;;;;5016553;28;20492;-71
2023/12/31 00:12:19;;;;;;;0.00;0.00;;;5.10;99.90;;;;;;5011024;28;20040;-71
2023/12/31 00:14:44;;;;;;;0.00;0.00;;;5.00;99.90;;;;;;4997740;28;20030;-71
2023/12/31 00:17:10;;;;;;;0.00;0.00;;;5.10;99.90;;;;;;4988147;28;20045;-71
2023/12/31 00:19:36;;;;;;;0.00;0.00;;;5.10;99.90;;;;;;5004420;28;20029;-71
2023/12/31 00:22:02;;;;;;;0.00;0.00;;;5.00;99.90;;;;;;5009330;28;20064;-71
2023/12/31 00:24:27;;;;;;;0.00;0.00;;;5.00;99.90;;;;;;5004904;28;20939;-71
2023/12/31 00:26:53;;;;;;;0.20;0.20;;;5.00;99.90;;;;;;5005357;28;20363;-71
2023/12/31 00:29:18;;;;;;;0.00;0.00;;;5.00;99.90;;;;;;4992945;28;20599;-68
2023/12/31 00:31:44;;;;;;;0.00;0.00;;;5.00;99.90;;;;;;5013125;28;20112;-70
2023/12/31 00:34:11;;;;;;;0.00;0.00;;;5.00;99.90;;;;;;5009291;28;20164;-71
2023/12/31 00:36:37;;;;;;;0.00;0.00;;;5.00;99.90;;;;;;5010173;28;20022;-71
2023/12/31 00:39:02;;;;;;;0.00;0.00;;;5.00;99.90;;;;;;5011789;28;20101;-71
2023/12/31 00:41:28;;;;;;;0.00;0.00;;;4.90;99.90;;;;;;5013001;28;20097;-70
2023/12/31 00:43:54;;;;;;;0.00;0.00;;;5.00;99.90;;;;;;5007664;28;20026;-70
2023/12/31 00:46:19;;;;;;;0.00;0.00;;;5.00;99.90;;;;;;5016416;28;20104;-70
2023/12/31 00:48:45;;;;;;;0.00;0.00;;;5.00;99.90;;;;;;4988833;28;20032;-70
2023/12/31 00:51:11;;;;;;;0.00;0.00;;;5.00;99.90;;;;;;4994691;28;20025;-70
2023/12/31 00:53:36;;;;;;;0.00;0.00;;;5.00;99.90;;;;;;5006592;28;20033;-70
2023/12/31 00:56:03;;;;;;;0.00;0.00;;;5.00;99.90;;;;;;4994273;28;20026;-70
2023/12/31 00:58:28;;;;;;;0.00;0.00;;;5.00;99.90;;;;;;5009113;28;20025;-70
2023/12/31 01:00:54;;;;;;;0.00;0.00;;;5.00;99.90;;;;;;5004820;28;20033;-70
2023/12/31 01:03:20;;;;;;;0.00;0.00;;;5.00;99.90;;;;;;5002049;28;20048;-71
2023/12/31 01:05:45;;;;;;;0.00;0.00;;;5.00;99.90;;;;;;5013110;28;20041;-70
2023/12/31 01:08:11;;;;;;;0.00;0.00;;;5.00;99.90;;;;;;5011998;28;20029;-71
2023/12/31 01:10:37;;;;;;;0.00;0.00;;;4.90;99.90;;;;;;4992117;28;20462;-70
2023/12/31 01:13:02;;;;;;;0.00;0.00;;;4.90;99.90;;;;;;5011625;28;20068;-70
2023/12/31 01:15:28;;;;;;;0.00;0.00;;;4.90;99.90;;;;;;5010286;28;20024;-71
2023/12/31 01:17:54;;;;;;;0.00;0.00;;;4.90;99.90;;;;;;4993562;28;20319;-70
2023/12/31 01:20:20;;;;;;;0.00;0.00;;;4.90;99.90;;;;;;5014215;28;21107;-70
2023/12/31 01:22:45;;;;;;;0.00;0.00;;;4.90;99.90;;;;;;5005493;28;20499;-70
2023/12/31 01:25:11;;;;;;;0.00;0.00;;;4.90;99.90;;;;;;5011581;28;20029;-71
2023/12/31 01:27:37;;;;;;;0.00;0.00;;;4.80;99.90;;;;;;5004200;28;20026;-70
2023/12/31 01:30:03;;;;;;;0.00;0.00;;;4.70;99.90;;;;;;5013245;28;20033;-71
2023/12/31 01:32:29;;;;;;;0.00;0.00;;;4.60;99.90;;;;;;5004243;28;20030;-70
2023/12/31 01:34:58;;;;;;;0.00;0.00;;;4.50;99.90;;;;;;5011191;28;20043;-70
2023/12/31 01:37:24;;;;;;;0.00;0.00;;;4.40;99.90;;;;;;4994467;28;20029;-70
2023/12/31 01:39:50;;;;;;;0.00;0.00;;;4.30;99.90;;;;;;5006402;28;20033;-69
2023/12/31 01:42:16;;;;;;;0.00;0.00;;;4.30;99.90;;;;;;5003120;28;20033;-70
2023/12/31 01:44:41;;;;;;;0.00;0.00;;;4.30;99.90;;;;;;5007076;28;20041;-70
2023/12/31 01:47:07;;;;;;;0.00;0.00;;;4.20;99.90;;;;;;5005897;28;20030;-70
2023/12/31 01:49:33;;;;;;;0.00;0.00;;;4.20;99.90;;;;;;5006687;28;20333;-70
2023/12/31 01:52:00;;;;;;;0.00;0.00;;;4.10;99.90;;;;;;5008044;28;20042;-70
2023/12/31 01:54:27;;;;;;;0.00;0.00;;;4.20;99.90;;;;;;5005422;28;20022;-70
2023/12/31 01:56:53;;;;;;;0.00;0.00;;;4.10;99.90;;;;;;5016320;28;20052;-70
2023/12/31 01:59:20;;;;;;;0.00;0.00;;;4.10;99.90;;;;;;5005355;28;20465;-70
2023/12/31 02:01:48;;;;;;;0.00;0.00;;;4.10;99.90;;;;;;5011780;28;20476;-70
2023/12/31 02:04:15;;;;;;;0.00;0.00;;;4.10;99.90;;;;;;5011159;28;20017;-70
2023/12/31 02:06:41;;;;;;;0.00;0.00;;;4.00;99.90;;;;;;5014182;28;20084;-70
2023/12/31 02:09:08;;;;;;;0.00;0.00;;;4.00;99.90;;;;;;5011150;28;20424;-68
2023/12/31 02:11:35;;;;;;;0.00;0.00;;;4.00;99.90;;;;;;5011616;28;20049;-67
2023/12/31 02:14:01;;;;;;;0.00;0.00;;;3.90;99.90;;;;;;5010275;28;20033;-67
2023/12/31 02:16:27;;;;;;;0.10;0.10;;;3.90;99.90;;;;;;5013046;28;20424;-67
2023/12/31 02:18:53;;;;;;;0.00;0.00;;;3.90;99.90;;;;;;5008991;28;20025;-67
2023/12/31 02:21:20;;;;;;;0.00;0.00;;;3.90;99.90;;;;;;5017011;28;20097;-67
2023/12/31 02:23:46;;;;;;;0.00;0.00;;;3.90;99.90;;;;;;5009942;28;20033;-67
2023/12/31 02:26:12;;;;;;;0.00;0.00;;;3.90;99.90;;;;;;5008201;28;20046;-67
2023/12/31 02:28:39;;;;;;;0.00;0.00;;;3.90;99.90;;;;;;5007004;28;20637;-69
2023/12/31 02:31:05;;;;;;;0.00;0.00;;;3.90;99.90;;;;;;4986930;28;20037;-67
2023/12/31 02:33:34;;;;;;;0.08;0.08;;;3.90;99.90;;;;;;5008488;28;20132;-68
2023/12/31 02:36:00;;;;;;;0.00;0.00;;;3.90;99.90;;;;;;5007004;28;20065;-67
2023/12/31 02:38:25;;;;;;;0.00;0.00;;;3.90;99.90;;;;;;5013859;28;20100;-68
2023/12/31 02:40:51;;;;;;;0.00;0.00;;;4.00;99.90;;;;;;5007553;28;20457;-68
2023/12/31 02:43:17;;;;;;;0.20;0.10;;;4.00;99.90;;;;;;5006838;28;20029;-67
2023/12/31 02:45:42;;;;;;;0.00;0.00;;;3.90;99.90;;;;;;5003728;28;20145;-67
2023/12/31 02:48:08;;;;;;;0.00;0.00;;;4.00;99.90;;;;;;5007236;28;20035;-68
2023/12/31 02:50:33;;;;;;;0.00;0.00;;;3.90;99.90;;;;;;4985889;28;20018;-67
2023/12/31 02:52:59;;;;;;;0.00;0.00;;;3.90;99.90;;;;;;5007710;28;20857;-68
2023/12/31 02:55:25;;;;;;;0.00;0.00;;;3.90;99.90;;;;;;5001450;28;20057;-68
2023/12/31 02:57:50;;;;;;;0.00;0.00;;;3.90;99.90;;;;;;5003379;28;20465;-69
2023/12/31 03:00:16;;;;;;;0.00;0.00;;;3.90;99.90;;;;;;5006389;28;20074;-68
2023/12/31 03:02:42;;;;;;;0.00;0.00;;;3.90;99.90;;;;;;4999187;28;20036;-67
2023/12/31 03:05:08;;;;;;;0.00;0.00;;;3.90;99.90;;;;;;5007238;28;20097;-68
2023/12/31 03:07:34;;;;;;;0.00;0.00;;;3.90;99.90;;;;;;5004941;28;20029;-67
2023/12/31 03:10:00;;;;;;;0.00;0.00;;;3.80;99.90;;;;;;5010321;28;21292;-67
2023/12/31 03:12:26;;;;;;;0.00;0.00;;;3.80;99.90;;;;;;4988149;28;20022;-67
2023/12/31 03:14:51;;;;;;;0.00;0.00;;;3.80;99.90;;;;;;5003560;28;20775;-67
2023/12/31 03:17:17;;;;;;;0.53;0.53;;;3.90;99.90;;;;;;5006061;28;20029;-67
2023/12/31 03:19:43;;;;;;;0.00;0.00;;;3.90;99.90;;;;;;5003600;28;20021;-67
2023/12/31 03:22:08;;;;;;;0.00;0.00;;;3.90;99.90;;;;;;5007415;28;20053;-68
2023/12/31 03:24:34;;;;;;;0.50;0.50;;;3.80;99.90;;;;;;4990385;28;20061;-67
2023/12/31 03:27:00;;;;;;;0.00;0.00;;;3.80;99.90;;;;;;5011107;28;20750;-68
2023/12/31 03:29:26;;;;;;;0.00;0.00;;;3.80;99.90;;;;;;5007291;28;20072;-68
2023/12/31 03:31:52;;;;;;;0.20;0.20;;;3.70;99.90;;;;;;5010284;28;20029;-67
2023/12/31 03:34:18;;;;;;;0.00;0.00;;;3.60;99.90;;;;;;5007002;28;20497;-67
2023/12/31 03:36:43;;;;;;;0.00;0.00;;;3.60;99.90;;;;;;5013327;28;20018;-69
2023/12/31 03:39:09;;;;;;;0.23;0.23;;;3.50;99.90;;;;;;5010111;28;20018;-67
2023/12/31 03:41:35;;;;;;;0.00;0.00;;;3.50;99.90;;;;;;5006379;28;20658;-68
2023/12/31 03:44:01;;;;;;;0.00;0.00;;;3.50;99.90;;;;;;5006255;28;20064;-67
2023/12/31 03:46:27;;;;;;;0.13;0.13;;;3.50;99.90;;;;;;5008612;28;20465;-67
2023/12/31 03:48:53;;;;;;;;;;;3.50;99.90;;;;;;4990459;28;20025;-68
2023/12/31 03:51:19;;;;;;;0.00;0.00;;;3.40;99.90;;;;;;5012690;28;20278;-68
2023/12/31 03:53:45;;;;;;;0.00;0.00;;;3.50;99.90;;;;;;5010488;28;20029;-67
2023/12/31 03:56:11;;;;;;;0.00;0.00;;;3.40;99.90;;;;;;5009246;28;20054;-68
2023/12/31 03:58:37;;;;;;;0.13;0.13;;;3.30;99.90;;;;;;5014532;28;20034;-67
2023/12/31 04:01:03;;;;;;;0.00;0.00;;;3.40;99.90;;;;;;5007937;28;20040;-68
2023/12/31 04:03:29;;;;;;;0.10;0.10;;;3.40;99.90;;;;;;5007206;28;20027;-68
2023/12/31 04:05:54;;;;;;;0.00;0.00;;;3.30;99.90;;;;;;5006203;28;20022;-68
2023/12/31 04:08:20;;;;;;;0.00;0.00;;;3.20;99.90;;;;;;5009931;28;20045;-68
2023/12/31 04:10:46;;;;;;;0.00;0.00;;;3.20;99.90;;;;;;5011879;28;20026;-69
2023/12/31 04:13:11;;;;;;;0.00;0.00;;;3.10;99.90;;;;;;4997208;28;20045;-67
2023/12/31 04:15:37;;;;;;;0.00;0.00;;;3.10;99.90;;;;;;5013382;28;20032;-67
2023/12/31 04:18:03;;;;;;;0.47;0.47;;;3.10;99.90;;;;;;5010218;28;20524;-67
2023/12/31 04:20:29;;;;;;;0.00;0.00;;;3.00;99.90;;;;;;4991787;28;20017;-67
2023/12/31 04:22:55;;;;;;;1.50;1.40;;;3.00;99.90;;;;;;5007981;28;20268;-67
2023/12/31 04:25:21;;;;;;;1.30;1.10;;;2.90;99.90;;;;;;5004863;28;20034;-69
2023/12/31 04:27:46;;;;;;;0.00;0.00;;;2.90;99.90;;;;;;4998257;28;20025;-70
2023/12/31 04:30:12;;;;;;;0.00;0.00;;;2.90;99.90;;;;;;5013033;28;20028;-70
2023/12/31 04:32:38;;;;;;;0.00;0.00;;;2.80;99.90;;;;;;5002260;28;20049;-70
2023/12/31 04:35:05;;;;;;;0.00;0.00;;;2.80;99.90;;;;;;5012154;28;20029;-70
2023/12/31 04:37:30;;;;;;;;;;;2.80;99.90;;;;;;5009653;28;20022;-70
2023/12/31 04:39:56;;;;;;;0.00;0.00;;;2.80;99.90;;;;;;5011077;28;20371;-70
2023/12/31 04:42:22;;;;;;;0.00;0.00;;;2.80;99.90;;;;;;5011870;28;20108;-70
2023/12/31 04:44:48;;;;;;;0.00;0.00;;;2.90;99.90;;;;;;5013006;28;20026;-69
2023/12/31 04:47:13;;;;;;;0.00;0.00;;;3.10;99.90;;;;;;5009989;28;20104;-70
2023/12/31 04:49:39;;;;;;;0.00;0.00;;;3.20;99.90;;;;;;5009654;28;20022;-70
2023/12/31 04:52:05;;;;;;;0.00;0.00;;;3.30;99.90;;;;;;5010050;28;20121;-70
2023/12/31 04:54:30;;;;;;;0.00;0.00;;;3.30;99.90;;;;;;5004854;28;20030;-70
2023/12/31 04:56:56;;;;;;;0.00;0.00;;;3.40;99.90;;;;;;5009941;28;20383;-70
2023/12/31 04:59:22;;;;;;;0.00;0.00;;;3.40;99.90;;;;;;5012898;28;20086;-70
2023/12/31 05:01:50;;;;;;;0.33;0.33;;;3.50;99.90;;;;;;5010925;28;20018;-69
2023/12/31 05:04:16;;;;;;;0.10;0.10;;;3.60;99.90;;;;;;4988263;28;20029;-69
2023/12/31 05:06:41;;;;;;;0.00;0.00;;;3.70;99.90;;;;;;5011876;28;20024;-70
2023/12/31 05:09:11;;;;;;;0.00;0.00;;;3.70;99.90;;;;;;5008435;28;20021;-70
2023/12/31 05:11:39;;;;;;;0.00;0.00;;;3.70;99.90;;;;;;5014459;28;20509;-70
2023/12/31 05:14:05;;;;;;;0.32;0.32;;;3.70;99.90;;;;;;4991124;28;20088;-69
2023/12/31 05:16:31;;;;;;;0.20;0.17;;;3.80;99.90;;;;;;5008263;28;20026;-70
2023/12/31 05:18:58;;;;;;;0.03;0.03;;;3.80;99.90;;;;;;5009363;28;20026;-69
2023/12/31 05:21:24;;;;;;;0.00;0.00;;;3.90;99.90;;;;;;5009191;28;20030;-70
2023/12/31 05:23:50;;;;;;;0.00;0.00;;;3.90;99.90;;;;;;5001362;28;20033;-69
2023/12/31 05:26:16;;;;;;;0.00;0.00;;;4.00;99.90;;;;;;5014086;28;20033;-70
2023/12/31 05:28:42;;;;;;;0.30;0.30;;;4.10;99.90;;;;;;5012237;28;20017;-70
2023/12/31 05:31:08;;;;;;;0.00;0.00;;;4.00;99.90;;;;;;5010040;28;20412;-70
2023/12/31 05:33:35;;;;;;;0.85;0.85;;;4.00;99.90;;;;;;5008823;28;20017;-69
2023/12/31 05:36:00;;;;;;;0.00;0.00;;;4.10;99.90;;;;;;5010943;28;20489;-70
2023/12/31 05:38:26;;;;;;;1.40;0.40;;;4.10;99.90;;;;;;5013490;28;20057;-70
2023/12/31 05:40:52;;;;;;;1.77;1.67;;;4.20;99.90;;;;;;5012798;28;20078;-69
2023/12/31 05:43:17;;;;;;;0.83;0.83;;;4.20;99.90;;;;;;5000848;28;20100;-70
2023/12/31 05:45:43;;;;;;;3.33;0.47;;;4.30;99.90;;;;;;5012431;28;20041;-70
2023/12/31 05:48:09;;;;;;;0.27;0.27;;;4.30;99.90;;;;;;5011074;28;20479;-70
2023/12/31 05:50:34;;;;;;;0.00;0.00;;;4.20;99.90;;;;;;5012438;28;20481;-70
2023/12/31 05:53:00;;;;;;;0.47;0.47;;;4.30;99.90;;;;;;5013808;28;20066;-70
2023/12/31 05:55:26;;;;;;;0.00;0.00;;;4.20;99.90;;;;;;5008182;28;20171;-69
2023/12/31 05:57:52;;;;;;;0.10;0.10;;;4.20;99.90;;;;;;5014265;28;20656;-70
2023/12/31 06:00:18;;;;;;;;;;;4.20;99.90;;;;;;5013939;28;20504;-70
2023/12/31 06:02:43;;;;;;;0.00;0.00;;;4.10;99.90;;;;;;5009757;28;19905;-70
2023/12/31 06:05:09;;;;;;;0.00;0.00;;;4.10;99.90;;;;;;5011945;28;20037;-70
2023/12/31 06:07:36;;;;;;;0.67;0.67;;;4.00;99.90;;;;;;5012568;28;20796;-69
2023/12/31 06:10:03;;;;;;;0.60;0.60;;;3.90;99.90;;;;;;5010606;28;20405;-70
2023/12/31 06:12:31;;;;;;;0.20;0.20;;;3.90;99.90;;;;;;5013807;28;20113;-70
2023/12/31 06:14:59;;;;;;;0.70;0.70;;;3.90;99.90;;;;;;5010684;28;20021;-70
2023/12/31 06:17:25;;;;;;;0.00;0.00;;;3.90;99.90;;;;;;5006119;28;20021;-69
2023/12/31 06:19:51;;;;;;;1.05;1.05;;;3.90;99.90;;;;;;5012001;28;20421;-69
2023/12/31 06:22:17;;;;;;;0.00;0.00;;;3.90;99.90;;;;;;5017494;28;20040;-70
2023/12/31 06:24:42;;;;;;;0.00;0.00;;;3.80;99.90;;;;;;5014840;28;20026;-70
2023/12/31 06:27:08;;;;;;;1.20;1.13;;;3.90;99.90;;;;;;4993360;28;20060;-70
2023/12/31 06:29:33;;;;;;;0.00;0.00;;;3.80;99.90;;;;;;5010250;28;20072;-70
2023/12/31 06:31:59;;;;;;;0.10;0.10;;;3.90;99.90;;;;;;5012111;28;20037;-70
2023/12/31 06:34:25;;;;;;;0.20;0.20;;;3.90;99.90;;;;;;5006864;28;20487;-70
2023/12/31 06:36:50;;;;;;;0.00;0.00;;;3.90;99.90;;;;;;5012906;28;20056;-70
2023/12/31 06:39:16;;;;;;;0.00;0.00;;;3.90;99.90;;;;;;5010328;28;20032;-69
2023/12/31 06:41:42;;;;;;;0.73;0.30;;;3.80;99.90;;;;;;5012102;28;20069;-69
2023/12/31 06:44:07;;;;;;;0.00;0.00;;;3.80;99.90;;;;;;5014299;28;20034;-69
2023/12/31 06:46:33;;;;;;;0.00;0.00;;;3.80;99.90;;;;;;5009900;28;20534;-70
2023/12/31 06:48:59;;;;;;;0.00;0.00;;;3.80;99.90;;;;;;5010943;28;20716;-70
2023/12/31 06:51:24;;;;;;;0.00;0.00;;;3.70;99.90;;;;;;5011691;28;20025;-70
2023/12/31 06:53:50;;;;;;;0.00;0.00;;;3.70;99.90;;;;;;5007866;28;21890;-69
2023/12/31 06:56:18;;;;;;;0.27;0.27;;;3.80;99.90;;;;;;5012991;28;20037;-69
2023/12/31 06:58:44;;;;;;;0.00;0.00;;;3.80;99.90;;;;;;5010029;28;20022;-70
2023/12/31 07:01:09;;;;;;;0.40;0.40;;;3.80;99.90;;;;;;5008333;28;20117;-70
2023/12/31 07:03:35;;;;;;;0.10;0.10;;;3.80;99.90;;;;;;5003036;28;20101;-70
2023/12/31 07:06:01;;;;;;;0.00;0.00;;;3.70;99.90;;;;;;5010255;28;20029;-69
2023/12/31 07:08:27;;;;;;;0.08;0.08;;;3.70;99.90;;;;;;4996321;28;20079;-70
2023/12/31 07:10:53;;;;;;;0.10;0.10;;;3.70;99.90;;;;;;5011741;28;20022;-69
2023/12/31 07:13:20;;;;;;;0.07;0.07;;;3.80;99.90;;;;;;5014200;28;20107;-70
2023/12/31 07:15:46;;;;;;;0.00;0.00;;;3.80;99.90;;;;;;4996913;28;20029;-69
2023/12/31 07:18:12;;;;;;;0.43;0.43;;;3.80;99.90;;;;;;5014988;28;20099;-70
2023/12/31 07:20:38;;;;;;;0.00;0.00;;;3.90;99.90;;;;;;5006308;28;20030;-70
2023/12/31 07:23:04;;;;;;;;;;;3.80;99.90;;;;;;5008679;28;20087;-69
2023/12/31 07:25:31;;;;;;;0.00;0.00;;;3.90;99.90;;;;;;4989255;28;19909;-70
2023/12/31 07:27:58;;;;;;;;;;;3.90;99.90;;;;;;5009545;28;20026;-70
2023/12/31 07:30:25;;;;;;;0.30;0.30;;;3.90;99.90;;;;;;5010088;28;19909;-69
2023/12/31 07:32:51;;;;;;;0.00;0.00;;;3.80;99.90;;;;;;5003950;28;20029;-70
2023/12/31 07:35:17;;;;;;;0.00;0.00;;;3.70;99.90;;;;;;5009898;28;20030;-70
2023/12/31 07:37:43;;;;;;;0.05;0.05;;;3.90;99.90;;;;;;4997535;28;20101;-70
2023/12/31 07:40:10;;;;;;;0.00;0.00;;;3.80;99.90;;;;;;5009913;28;20046;-70
2023/12/31 07:42:37;;;;;;;0.05;0.05;;;3.90;99.90;;;;;;5012683;28;20034;-69
2023/12/31 07:45:04;;;;;;;0.00;0.00;;;3.90;99.90;;;;;;5012060;28;20025;-70
2023/12/31 07:47:31;;;;;;;0.00;0.00;;;3.80;99.90;;;;;;5012664;28;20030;-70
2023/12/31 07:49:57;;;;;;;0.43;0.22;;;3.70;99.90;;;;;;4992258;28;20033;-70
2023/12/31 07:52:25;;;;;;;0.00;0.00;;;3.70;99.90;;;;;;4994508;28;20067;-70
2023/12/31 07:54:51;;;;;;;0.00;0.00;;;3.70;99.90;;;;;;5005628;28;20060;-69
2023/12/31 07:57:16;;;;;;;0.98;0.75;;;3.60;99.90;;;;;;5012520;28;20048;-70
2023/12/31 07:59:43;;;;;;;0.00;0.00;;;3.60;99.90;;;;;;5012298;28;20034;-70
2023/12/31 08:02:09;;;;;;;0.00;0.00;;;3.60;99.90;;;;;;5005879;28;20120;-70
2023/12/31 08:04:34;;;;;;;0.37;0.20;;;3.60;99.90;;;;;;5003472;28;20038;-70
2023/12/31 08:07:00;;;;;;;0.10;0.10;;;3.60;99.90;;;;;;5010166;28;20060;-71
2023/12/31 08:09:26;;;;;;;0.00;0.00;;;3.50;99.90;;;;;;5005066;28;20029;-71
2023/12/31 08:11:51;;;;;;;0.10;0.10;;;3.50;99.90;;;;;;5012101;28;20018;-70
2023/12/31 08:14:17;;;;;;;0.00;0.00;;;3.50;99.90;;;;;;5011920;28;20036;-70
2023/12/31 08:16:43;;;;;;;0.10;0.10;;;3.50;99.90;;;;;;4990897;28;20021;-70
2023/12/31 08:19:08;;;;;;;0.00;0.00;;;3.80;99.90;;;;;;5011343;28;20049;-69
2023/12/31 08:21:34;;;;;;;0.13;0.07;;;3.90;99.90;;;;;;5008848;28;20036;-72
2023/12/31 08:24:00;;;;;;;0.00;0.00;;;3.80;99.90;;;;;;5001494;28;20405;-70
2023/12/31 08:26:27;;;;;;;0.00;0.00;;;3.70;99.90;;;;;;5012867;28;20053;-70
2023/12/31 08:28:52;;;;;;;0.60;0.60;;;3.70;99.90;;;;;;5013739;28;20083;-67
2023/12/31 08:31:18;;;;;;;0.00;0.00;;;3.60;99.90;;;;;;5009542;28;20021;-69
2023/12/31 08:33:44;;;;;;;0.10;0.10;;;3.50;99.90;;;;;;5005056;28;20868;-68
2023/12/31 08:36:09;;;;;;;0.10;0.10;;;3.50;99.90;;;;;;5008336;28;20022;-69
2023/12/31 08:38:35;;;;;;;0.00;0.00;;;3.50;99.90;;;;;;5009933;28;20076;-67
2023/12/31 08:41:02;;;;;;;0.00;0.00;;;3.60;99.90;;;;;;5006710;28;20018;-71
2023/12/31 08:43:28;;;;;;;0.00;0.00;;;3.50;99.90;;;;;;5012109;28;20026;-70
2023/12/31 08:45:54;;;;;;;0.20;0.20;;;3.50;99.90;;;;;;5004902;28;20025;-69
2023/12/31 08:48:20;;;;;;;0.00;0.00;;;3.50;99.90;;;;;;5008371;28;20026;-70
2023/12/31 08:50:46;;;;;;;1.02;1.02;;;3.50;99.90;;;;;;5009440;28;20136;-70
2023/12/31 08:53:12;;;;;;;0.60;0.60;;;3.60;99.90;;;;;;5004768;28;20035;-69
2023/12/31 08:55:38;;;;;;;0.00;0.00;;;3.30;99.90;;;;;;5006961;28;20021;-69
2023/12/31 08:58:04;;;;;;;0.00;0.00;;;3.30;99.90;;;;;;5003140;28;20029;-68
2023/12/31 09:00:32;;;;;;;0.00;0.00;;;3.20;99.90;;;;;;5009746;28;20440;-69
2023/12/31 09:02:59;;;;;;;0.38;0.30;;;3.30;99.90;;;;;;4999668;28;20029;-69
2023/12/31 09:05:25;;;;;;;;;;;3.10;99.90;;;;;;5011355;28;20100;-67
2023/12/31 09:07:51;;;;;;;0.00;0.00;;;3.10;99.90;;;;;;5012889;28;20008;-65
2023/12/31 09:10:16;;;;;;;0.00;0.00;;;3.20;99.90;;;;;;5007833;28;20633;-63
2023/12/31 09:12:42;;;;;;;0.00;0.00;;;3.30;99.90;;;;;;5012575;28;20506;-63
2023/12/31 09:15:09;;;;;;;0.15;0.15;;;3.40;99.90;;;;;;5002963;28;20418;-64
2023/12/31 09:17:35;;;;;;;0.00;0.00;;;3.40;99.90;;;;;;5006171;28;20109;-63
2023/12/31 09:20:05;;;;;;;0.00;0.00;;;3.40;99.90;;;;;;5003429;28;20113;-65
2023/12/31 09:22:31;;;;;;;0.00;0.00;;;3.40;99.90;;;;;;5007800;28;20037;-64
2023/12/31 09:24:57;;;;;;;7.70;1.90;;;3.50;99.90;;;;;;5003150;28;20041;-63
2023/12/31 09:27:22;;;;;;;0.00;0.00;;;3.50;99.90;;;;;;5009075;28;20037;-64
2023/12/31 09:29:48;;;;;;;0.00;0.00;;;3.60;99.90;;;;;;5011197;28;20060;-66
2023/12/31 09:32:14;;;;;;;0.43;0.43;;;3.70;99.90;;;;;;5005820;28;20096;-65
2023/12/31 09:34:40;;;;;;;0.10;0.10;;;3.60;99.90;;;;;;5008705;28;20054;-63
2023/12/31 09:37:05;;;;;;;5.90;0.80;;;3.50;99.90;;;;;;5007301;28;20268;-63
2023/12/31 09:39:31;;;;;;;0.17;0.17;;;3.50;99.90;;;;;;5007206;28;20018;-63
2023/12/31 09:42:03;;;;;;;0.00;0.00;;;3.50;99.90;;;;;;5009845;28;20044;-64
2023/12/31 09:44:29;;;;;;;0.00;0.00;;;3.60;99.90;;;;;;5009066;28;20036;-64
2023/12/31 09:47:07;;;;;;;0.20;0.20;;;3.80;99.90;;;;;;5007805;28;20055;-64
2023/12/31 09:49:35;;;;;;;0.00;0.00;;;3.60;99.90;;;;;;5004348;28;20021;-63
2023/12/31 09:52:08;;;;;;;0.00;0.00;;;3.60;99.90;;;;;;5005808;28;20088;-64
2023/12/31 09:54:36;;;;;;;0.15;0.15;;;3.70;99.90;;;;;;5002782;28;20649;-63
2023/12/31 09:57:04;;;;;;;0.00;0.00;;;3.80;99.90;;;;;;5001941;28;20395;-63
2023/12/31 09:59:30;;;;;;;0.00;0.00;;;3.90;99.90;;;;;;4989066;28;20564;-63
2023/12/31 10:01:59;;;;;;;0.57;0.57;;;4.00;99.90;;;;;;5001884;28;20279;-64
2023/12/31 10:04:26;;;;;;;0.00;0.00;;;4.10;99.90;;;;;;4990679;28;20356;-63
2023/12/31 10:06:53;;;;;;;0.00;0.00;;;4.20;99.90;;;;;;5005313;28;20680;-66
2023/12/31 10:09:20;;;;;;;0.00;0.00;;;4.40;99.90;;;;;;5013581;28;20048;-63
2023/12/31 10:11:46;;;;;;;0.00;0.00;;;4.50;99.90;;;;;;5011254;28;20075;-64
2023/12/31 10:14:12;;;;;;;0.00;0.00;;;4.40;99.90;;;;;;4995260;28;20393;-57
2023/12/31 10:16:43;;;;;;;0.00;0.00;;;4.20;99.90;;;;;;5007387;28;20041;-57
2023/12/31 10:19:12;;;;;;;0.10;0.10;;;4.20;99.90;;;;;;5004829;28;20064;-65
2023/12/31 10:21:40;;;;;;;0.65;0.17;;;4.30;99.90;;;;;;5007635;28;20018;-63
2023/12/31 10:24:05;;;;;;;0.00;0.00;;;4.50;99.90;;;;;;5004820;28;20113;-64
2023/12/31 10:26:31;;;;;;;0.00;0.00;;;4.70;99.90;;;;;;5012677;28;20034;-64
2023/12/31 10:28:57;;;;;;;0.00;0.00;;;4.90;99.90;;;;;;5012516;28;20051;-66
2023/12/31 10:31:25;;;;;;;0.00;0.00;;;5.00;99.90;;;;;;5010211;28;20026;-66
2023/12/31 10:33:50;;;;;;;0.00;0.00;;;4.80;99.90;;;;;;5014570;28;20025;-65
2023/12/31 10:36:20;;;;;;;0.00;0.00;;;4.50;99.90;;;;;;5013263;28;20078;-63
2023/12/31 10:38:48;;;;;;;0.43;0.43;;;4.50;99.90;;;;;;5007829;28;20171;-64
2023/12/31 10:41:24;;;;;;;0.28;0.28;;;4.60;99.90;;;;;;5013833;28;20033;-64
2023/12/31 10:43:50;;;;;;;0.00;0.00;;;4.80;99.90;;;;;;5009919;28;20020;-66
2023/12/31 10:46:21;;;;;;;0.00;0.00;;;4.90;99.90;;;;;;5001870;28;20414;-63
2023/12/31 10:48:56;;;;;;;0.03;0.03;;;5.00;99.90;;;;;;5008819;28;20017;-63
2023/12/31 10:51:23;;;;;;;0.00;0.00;;;5.10;99.90;;;;;;5011133;28;20074;-67
2023/12/31 10:53:54;;;;;;;0.00;0.00;;;5.20;99.90;;;;;;5013423;28;20037;-64
2023/12/31 10:56:21;;;;;;;0.00;0.00;;;5.10;99.90;;;;;;4995767;28;20041;-66
2023/12/31 10:58:47;;;;;;;0.00;0.00;;;5.00;99.90;;;;;;5017195;28;20021;-64
2023/12/31 11:01:16;;;;;;;0.00;0.00;;;5.00;99.90;;;;;;4990166;28;20026;-64
2023/12/31 11:03:42;;;;;;;0.10;0.10;;;5.00;99.90;;;;;;5010058;28;21134;-64
2023/12/31 11:06:09;;;;;;;0.10;0.10;;;5.20;99.90;;;;;;4992106;28;20021;-65
2023/12/31 11:08:37;;;;;;;0.00;0.00;;;5.30;99.90;;;;;;5008715;28;20121;-63
2023/12/31 11:11:03;;;;;;;0.00;0.00;;;5.30;99.90;;;;;;5014823;28;20608;-63
2023/12/31 11:13:31;;;;;;;0.00;0.00;;;5.50;99.90;;;;;;5010257;28;20033;-63
2023/12/31 11:16:01;;;;;;;0.00;0.00;;;5.50;99.90;;;;;;5008095;28;20128;-62
2023/12/31 11:18:50;;;;;;;0.00;0.00;;;5.50;99.90;;;;;;5008465;28;20423;-62
2023/12/31 11:21:45;;;;;;;0.00;0.00;;;5.60;99.90;;;;;;5004781;28;20017;-68
2023/12/31 11:24:17;;;;;;;0.00;0.00;;;5.60;99.90;;;;;;5006035;28;20056;-62
2023/12/31 11:26:43;;;;;;;0.00;0.00;;;5.70;99.90;;;;;;5009010;28;20022;-63
2023/12/31 11:29:12;;;;;;;0.00;0.00;;;5.80;99.90;;;;;;4997040;28;20025;-70
2023/12/31 11:31:41;;;;;;;0.00;0.00;;;5.90;99.90;;;;;;5010129;28;20265;-70
2023/12/31 11:34:07;;;;;;;0.00;0.00;;;5.90;99.90;;;;;;5010838;28;20107;-70
2023/12/31 11:36:33;;;;;;;0.10;0.10;;;6.00;99.90;;;;;;5011984;28;20087;-69
2023/12/31 11:39:14;;;;;;;0.00;0.00;;;6.10;99.90;;;;;;4989198;28;20132;-70
2023/12/31 11:42:11;;;;;;;0.00;0.00;;;6.10;99.90;;;;;;5010843;28;20033;-69
2023/12/31 11:44:37;;;;;;;0.00;0.00;;;6.20;99.90;;;;;;5006666;28;20079;-70
2023/12/31 11:47:13;;;;;;;0.00;0.00;;;6.20;99.90;;;;;;4991683;28;20052;-70
2023/12/31 11:49:41;;;;;;;0.00;0.00;;;6.20;99.90;;;;;;5009658;28;20099;-69
2023/12/31 11:52:08;;;;;;;1.52;0.45;;;6.20;99.90;;;;;;5012545;28;20017;-69
2023/12/31 11:54:35;;;;;;;0.00;0.00;;;6.20;99.90;;;;;;5003215;28;20037;-70
2023/12/31 11:57:02;;;;;;;0.00;0.00;;;6.20;99.90;;;;;;5011501;28;20025;-69
2023/12/31 11:59:27;;;;;;;0.00;0.00;;;6.20;99.90;;;;;;5012629;28;20032;-70
2023/12/31 12:01:54;;;;;;;0.00;0.00;;;6.30;99.90;;;;;;5007335;28;20025;-70
2023/12/31 12:04:21;;;;;;;0.10;0.10;;;6.30;99.90;;;;;;5003729;28;20041;-69
2023/12/31 12:06:46;;;;;;;0.00;0.00;;;5.90;99.90;;;;;;5005996;28;20028;-70
2023/12/31 12:09:12;;;;;;;0.00;0.00;;;5.60;99.90;;;;;;4988289;28;20026;-69
2023/12/31 12:11:43;;;;;;;1.80;0.30;;;5.60;99.90;;;;;;5011348;28;20919;-70
2023/12/31 12:14:10;;;;;;;0.10;0.10;;;5.70;99.90;;;;;;5010859;28;20021;-70
2023/12/31 12:16:37;;;;;;;0.00;0.00;;;5.60;99.90;;;;;;4990209;28;20079;-70
2023/12/31 12:19:06;;;;;;;0.00;0.00;;;5.50;99.90;;;;;;5013038;28;20057;-69
2023/12/31 12:21:32;;;;;;;0.00;0.00;;;5.50;99.90;;;;;;5005247;28;20358;-69
2023/12/31 12:23:58;;;;;;;0.08;0.08;;;5.40;99.90;;;;;;5008562;28;20026;-69
2023/12/31 12:26:25;;;;;;;;;;;5.30;99.90;;;;;;5012157;28;20033;-68
2023/12/31 12:28:53;;;;;;;0.00;0.00;;;5.20;99.90;;;;;;5012261;28;19905;-68
2023/12/31 12:31:18;;;;;;;0.00;0.00;;;5.20;99.90;;;;;;5005308;28;20014;-70
2023/12/31 12:33:50;;;;;;;0.00;0.00;;;5.30;99.90;;;;;;5007478;28;20025;-69
2023/12/31 12:36:19;;;;;;;0.00;0.00;;;5.20;99.90;;;;;;4994472;28;20099;-70
2023/12/31 12:38:48;;;;;;;0.00;0.00;;;5.30;99.90;;;;;;5011307;28;20020;-67
2023/12/31 12:41:20;;;;;;;0.25;0.22;;;5.40;99.90;;;;;;5013435;28;20013;-69
2023/12/31 12:43:49;;;;;;;0.00;0.00;;;5.50;99.90;;;;;;4992986;28;20028;-69
2023/12/31 12:46:14;;;;;;;0.00;0.00;;;5.50;99.90;;;;;;5010207;28;20018;-68
2023/12/31 12:48:51;;;;;;;0.00;0.00;;;5.50;99.90;;;;;;5007308;28;20366;-64
2023/12/31 12:51:17;;;;;;;0.52;0.52;;;5.60;99.90;;;;;;5008935;28;20022;-63
2023/12/31 12:53:43;;;;;;;0.00;0.00;;;5.70;99.90;;;;;;5007108;28;20029;-64